Time;durP1;ratioP1;P1;durP2;ratioP2;P2;SDS_P1;SDS_P2;PMS_P1;PMS_P2;Temp;Humidity;BMP_temperature;BMP_pressure;BME280_temperature;BME280_humidity;BME280_pressure;Samples;Min_cycle;Max_cycle;Signal;HPM_P1;HPM_P2
2021/10/09 00:01:35;;;;;;;20.90;16.63;;;9.10;1.00;;;;;;5109852;28;20178;-53
2021/10/09 00:04:00;;;;;;;26.13;17.97;;;9.10;1.00;;;;;;5109820;28;20228;-53
2021/10/09 00:06:26;;;;;;;25.73;18.77;;;10.40;1.00;;;;;;5106710;28;20182;-53
2021/10/09 00:08:51;;;;;;;25.57;17.93;;;9.10;1.00;;;;;;5108123;28;20670;-55
2021/10/09 00:11:32;;;;;;;28.27;18.43;;;9.10;1.00;;;;;;5107083;28;20205;-54
2021/10/09 00:13:57;;;;;;;23.00;17.93;;;9.00;1.00;;;;;;5108496;28;20231;-55
2021/10/09 00:16:23;;;;;;;28.40;17.67;;;9.00;1.00;;;;;;5110036;28;20441;-54
2021/10/09 00:18:48;;;;;;;21.50;16.23;;;9.00;1.00;;;;;;5105975;28;20214;-53
2021/10/09 00:21:14;;;;;;;25.70;18.30;;;9.00;1.00;;;;;;5107881;28;20544;-54
2021/10/09 00:23:39;;;;;;;27.60;19.03;;;9.00;1.00;;;;;;5109771;28;20689;-54
2021/10/09 00:26:05;;;;;;;27.70;19.10;;;9.00;1.00;;;;;;5108060;28;20186;-56
2021/10/09 00:28:30;;;;;;;25.20;15.70;;;9.00;1.00;;;;;;5109494;28;20197;-56
2021/10/09 00:30:56;;;;;;;21.97;15.93;;;8.90;1.00;;;;;;5105105;28;20193;-55
2021/10/09 00:33:21;;;;;;;23.50;15.60;;;8.90;1.00;;;;;;5106271;28;20655;-54
2021/10/09 00:35:47;;;;;;;22.60;15.60;;;8.90;1.00;;;;;;5112482;27;20183;-54
2021/10/09 00:38:12;;;;;;;23.53;16.70;;;8.80;1.00;;;;;;5109485;28;20202;-56
2021/10/09 00:40:38;;;;;;;21.73;17.17;;;8.80;1.00;;;;;;5107077;28;20187;-53
2021/10/09 00:43:04;;;;;;;22.53;16.47;;;8.70;1.00;;;;;;5104290;28;20258;-54
2021/10/09 00:45:29;;;;;;;21.50;16.40;;;8.70;1.00;;;;;;5108370;28;20185;-56
2021/10/09 00:47:55;;;;;;;21.33;17.67;;;8.60;1.00;;;;;;5110151;28;20515;-54
2021/10/09 00:50:20;;;;;;;26.50;17.27;;;8.70;1.00;;;;;;5107160;28;20194;-53
2021/10/09 00:52:47;;;;;;;20.57;16.20;;;8.70;1.00;;;;;;5105740;28;20842;-54
2021/10/09 00:55:13;;;;;;;25.67;17.10;;;8.60;1.00;;;;;;5107868;28;20190;-55
2021/10/09 00:57:40;;;;;;;21.70;16.40;;;8.60;1.00;;;;;;5108946;28;20617;-53
2021/10/09 01:00:06;;;;;;;24.70;18.07;;;8.60;1.00;;;;;;5109458;28;20491;-55
2021/10/09 01:02:38;;;;;;;24.80;16.77;;;8.60;1.00;;;;;;5107605;28;20436;-53
2021/10/09 01:05:09;;;;;;;25.20;17.10;;;8.60;1.00;;;;;;5106883;28;20933;-55
2021/10/09 01:07:34;;;;;;;23.50;17.60;;;8.60;1.00;;;;;;5107926;28;20498;-55
2021/10/09 01:10:00;;;;;;;25.70;18.40;;;8.60;1.00;;;;;;5106103;28;20483;-54
2021/10/09 01:12:27;;;;;;;27.90;16.63;;;8.60;1.00;;;;;;5106633;28;20187;-54
2021/10/09 01:14:52;;;;;;;24.90;17.80;;;8.60;1.00;;;;;;5108013;28;20440;-54
2021/10/09 01:17:18;;;;;;;26.17;17.10;;;8.60;1.00;;;;;;5109094;28;20466;-53
2021/10/09 01:19:44;;;;;;;23.97;16.20;;;8.50;1.00;;;;;;5108746;28;20517;-56
2021/10/09 01:22:10;;;;;;;22.87;16.30;;;8.40;1.00;;;;;;5108181;28;20182;-53
2021/10/09 01:24:37;;;;;;;24.50;16.97;;;8.40;1.00;;;;;;5103501;28;20436;-52
2021/10/09 01:27:03;;;;;;;27.90;17.43;;;8.40;1.00;;;;;;5109594;28;20432;-54
2021/10/09 01:29:29;;;;;;;21.73;15.43;;;8.30;1.00;;;;;;5104118;28;20443;-55
2021/10/09 01:31:54;;;;;;;24.93;15.53;;;8.30;1.00;;;;;;5107406;28;20474;-54
2021/10/09 01:34:22;;;;;;;25.03;17.50;;;8.30;1.00;;;;;;5110885;28;20275;-55
2021/10/09 01:36:48;;;;;;;22.63;15.40;;;8.30;1.00;;;;;;5105659;28;20174;-54
2021/10/09 01:39:15;;;;;;;25.63;16.27;;;8.30;1.00;;;;;;5106525;28;20437;-53
2021/10/09 01:41:43;;;;;;;21.80;16.77;;;8.30;1.00;;;;;;5091479;28;20447;-55
2021/10/09 01:44:09;;;;;;;21.30;15.87;;;8.20;1.00;;;;;;5104118;28;21012;-53
2021/10/09 01:46:35;;;;;;;24.47;16.67;;;8.10;1.00;;;;;;5108985;28;20501;-56
2021/10/09 01:49:02;;;;;;;24.03;16.07;;;8.10;1.00;;;;;;5108081;28;20432;-55
2021/10/09 01:51:29;;;;;;;21.23;16.60;;;8.10;1.00;;;;;;5110118;27;20464;-55
2021/10/09 01:53:54;;;;;;;25.67;16.57;;;8.10;1.00;;;;;;5108832;28;20436;-53
2021/10/09 01:56:20;;;;;;;26.70;17.60;;;8.00;1.00;;;;;;5109479;28;20433;-53
2021/10/09 01:58:45;;;;;;;21.77;15.40;;;8.00;1.00;;;;;;5104891;28;20251;-53
2021/10/09 02:01:11;;;;;;;24.97;15.63;;;8.00;1.00;;;;;;5107829;28;20182;-54
2021/10/09 02:03:37;;;;;;;24.07;16.63;;;8.00;1.00;;;;;;5110428;28;20182;-52
2021/10/09 02:06:03;;;;;;;23.00;16.93;;;7.90;1.00;;;;;;5107928;28;20182;-56
2021/10/09 02:08:28;;;;;;;22.60;15.57;;;7.90;1.00;;;;;;5091330;28;20452;-54
2021/10/09 02:11:00;;;;;;;25.93;16.50;;;7.90;1.00;;;;;;5112082;28;20187;-53
2021/10/09 02:26:32;;;;;;;22.93;15.77;;;7.90;1.00;;;;;;5107691;28;20474;-53
2021/10/09 02:28:58;;;;;;;29.00;16.57;;;7.80;1.00;;;;;;5113253;28;20489;-53
2021/10/09 02:31:24;;;;;;;20.03;15.77;;;7.80;1.00;;;;;;5109944;27;20191;-52
2021/10/09 02:33:49;;;;;;;23.83;15.33;;;7.80;1.00;;;;;;5108850;28;20201;-53
2021/10/09 02:36:15;;;;;;;23.70;15.30;;;7.80;1.00;;;;;;5109472;27;20213;-53
2021/10/09 02:38:41;;;;;;;23.20;15.40;;;7.80;1.00;;;;;;5107684;28;20205;-54
2021/10/09 02:41:06;;;;;;;19.40;15.03;;;7.70;1.00;;;;;;5112657;28;20186;-56
2021/10/09 02:43:32;;;;;;;24.30;16.27;;;7.70;1.00;;;;;;5110624;28;20185;-54
2021/10/09 02:45:57;;;;;;;22.83;16.03;;;7.70;1.00;;;;;;5092418;28;20524;-53
2021/10/09 02:48:23;;;;;;;22.20;15.70;;;7.60;1.00;;;;;;5105191;28;20204;-53
2021/10/09 02:50:48;;;;;;;23.40;17.77;;;7.70;1.00;;;;;;5111603;28;20178;-53
2021/10/09 02:53:14;;;;;;;23.40;17.47;;;7.70;1.00;;;;;;5109771;28;20270;-55
2021/10/09 02:55:39;;;;;;;23.60;16.20;;;7.70;1.00;;;;;;5112322;28;21164;-52
2021/10/09 02:58:05;;;;;;;21.67;16.93;;;7.70;1.00;;;;;;5110139;28;20206;-53
2021/10/09 03:00:31;;;;;;;19.33;14.37;;;7.60;1.00;;;;;;5111502;28;20182;-54
2021/10/09 03:02:56;;;;;;;22.47;16.67;;;7.60;1.00;;;;;;5107841;28;20183;-54
2021/10/09 03:05:22;;;;;;;24.60;17.57;;;7.60;1.00;;;;;;5110932;28;20429;-53
2021/10/09 03:07:48;;;;;;;21.93;16.30;;;7.50;1.00;;;;;;5111755;28;20210;-54
2021/10/09 03:10:14;;;;;;;22.40;16.57;;;7.60;1.00;;;;;;5111534;28;20428;-54
2021/10/09 03:12:40;;;;;;;24.43;16.33;;;7.50;1.00;;;;;;5111723;28;20183;-53
2021/10/09 03:15:07;;;;;;;32.30;17.40;;;7.50;1.00;;;;;;5109198;28;20522;-53
2021/10/09 03:17:33;;;;;;;24.40;16.83;;;7.50;1.00;;;;;;5110856;28;20555;-52
2021/10/09 03:19:58;;;;;;;27.03;18.10;;;7.50;1.00;;;;;;5110072;28;20531;-53
2021/10/09 03:22:24;;;;;;;25.03;17.93;;;7.50;1.00;;;;;;5090005;28;20175;-56
2021/10/09 03:24:50;;;;;;;20.47;15.97;;;7.40;1.00;;;;;;5110102;28;20174;-55
2021/10/09 03:27:15;;;;;;;24.10;17.53;;;7.40;1.00;;;;;;5108266;28;20235;-54
2021/10/09 03:29:41;;;;;;;22.93;16.83;;;7.40;1.00;;;;;;5103667;27;20182;-55
2021/10/09 03:32:06;;;;;;;25.47;17.27;;;7.40;1.00;;;;;;5106118;28;20179;-53
2021/10/09 03:34:35;;;;;;;24.97;17.30;;;7.40;1.00;;;;;;5106363;28;20183;-54
2021/10/09 03:37:02;;;;;;;22.70;17.43;;;7.40;1.00;;;;;;5092836;28;20194;-55
2021/10/09 03:39:29;;;;;;;25.17;17.13;;;7.30;1.00;;;;;;5094545;28;20470;-53
2021/10/09 03:42:01;;;;;;;30.53;19.30;;;7.30;1.00;;;;;;5095693;28;20460;-54
2021/10/09 03:44:28;;;;;;;25.20;19.10;;;7.20;1.00;;;;;;5095686;28;20437;-54
2021/10/09 03:47:12;;;;;;;30.77;19.47;;;7.20;1.00;;;;;;5093623;28;20453;-57
2021/10/09 03:49:54;;;;;;;30.87;19.27;;;7.20;1.00;;;;;;5108305;28;20436;-54
2021/10/09 03:55:08;;;;;;;31.43;20.27;;;7.30;1.00;;;;;;5105480;27;20436;-53
2021/10/09 03:57:34;;;;;;;28.97;19.40;;;7.20;1.00;;;;;;5089714;28;20467;-55
2021/10/09 04:00:00;;;;;;;22.13;17.20;;;7.20;1.00;;;;;;5092155;28;20465;-55
2021/10/09 04:02:26;;;;;;;24.87;18.03;;;7.20;1.00;;;;;;5109645;28;20432;-55
2021/10/09 04:04:51;;;;;;;24.33;18.43;;;7.30;1.00;;;;;;5107839;28;20523;-53
2021/10/09 04:07:17;;;;;;;22.03;17.00;;;7.30;1.00;;;;;;5107882;28;20549;-54
2021/10/09 04:09:42;;;;;;;26.00;17.80;;;7.30;1.00;;;;;;5103294;28;20632;-54
2021/10/09 04:12:08;;;;;;;25.67;17.73;;;7.30;1.00;;;;;;5107603;28;20532;-54
2021/10/09 04:14:34;;;;;;;27.33;18.90;;;7.30;1.00;;;;;;5103190;28;20608;-54
2021/10/09 04:16:59;;;;;;;21.77;16.40;;;7.30;1.00;;;;;;5099471;28;20580;-54
2021/10/09 04:19:25;;;;;;;27.97;18.30;;;7.40;1.00;;;;;;5106628;28;20186;-54
2021/10/09 04:21:50;;;;;;;24.60;18.30;;;7.70;1.00;;;;;;5103915;28;20267;-53
2021/10/09 04:24:18;;;;;;;26.10;19.10;;;7.40;1.00;;;;;;5102046;28;20249;-53
2021/10/09 04:26:44;;;;;;;27.17;18.20;;;7.50;1.00;;;;;;5107914;28;20167;-53
2021/10/09 04:29:10;;;;;;;23.70;17.57;;;7.40;1.00;;;;;;5108082;28;20435;-55
2021/10/09 04:31:35;;;;;;;25.67;18.50;;;7.30;1.00;;;;;;5108132;28;20436;-53
2021/10/09 04:34:01;;;;;;;31.90;18.67;;;7.30;1.00;;;;;;5109302;28;20210;-56
2021/10/09 04:36:26;;;;;;;24.60;18.07;;;7.40;1.00;;;;;;5109260;28;20218;-53
2021/10/09 04:38:52;;;;;;;26.37;19.37;;;7.40;1.00;;;;;;5110315;28;20720;-54
2021/10/09 04:41:17;;;;;;;25.17;18.47;;;7.50;1.00;;;;;;5108539;28;20187;-53
2021/10/09 04:43:43;;;;;;;27.40;18.80;;;7.60;1.00;;;;;;5107438;28;20218;-55
2021/10/09 04:46:08;;;;;;;27.27;18.70;;;7.60;1.00;;;;;;5108188;28;20258;-54
2021/10/09 04:48:34;;;;;;;29.20;19.23;;;7.60;1.00;;;;;;5102999;28;20190;-55
2021/10/09 04:50:59;;;;;;;28.07;19.80;;;7.70;1.00;;;;;;5109425;28;20222;-52
2021/10/09 04:53:25;;;;;;;30.93;21.10;;;7.70;1.00;;;;;;5107352;28;20182;-54
2021/10/09 04:55:50;;;;;;;31.33;19.33;;;7.70;1.00;;;;;;5104768;28;20174;-55
2021/10/09 04:58:16;;;;;;;28.13;19.43;;;7.70;1.00;;;;;;5105369;28;20207;-53
2021/10/09 05:00:41;;;;;;;26.97;20.20;;;7.80;1.00;;;;;;5107310;28;20179;-54
2021/10/09 05:03:07;;;;;;;27.97;19.03;;;7.70;1.00;;;;;;5108554;28;20210;-54
2021/10/09 05:05:33;;;;;;;30.43;19.20;;;7.70;1.00;;;;;;5109597;28;20302;-56
2021/10/09 05:07:58;;;;;;;27.20;18.70;;;7.70;1.00;;;;;;5109023;28;20174;-55
2021/10/09 05:10:26;;;;;;;27.20;20.13;;;7.70;1.00;;;;;;5107545;28;20182;-53
2021/10/09 05:12:51;;;;;;;26.40;18.87;;;7.70;1.00;;;;;;5104915;28;20186;-56
2021/10/09 05:15:17;;;;;;;25.87;19.50;;;7.60;1.00;;;;;;5106831;28;20435;-54
2021/10/09 05:17:43;;;;;;;24.90;18.93;;;7.60;1.00;;;;;;5103946;28;20873;-52
2021/10/09 05:20:09;;;;;;;28.40;19.47;;;7.70;1.00;;;;;;5107418;28;20185;-54
2021/10/09 05:22:35;;;;;;;25.50;19.17;;;7.80;1.00;;;;;;5111856;28;20190;-54
2021/10/09 05:25:02;;;;;;;29.63;20.33;;;7.80;1.00;;;;;;5103806;28;20445;-55
2021/10/09 05:27:28;;;;;;;26.67;20.10;;;7.80;1.00;;;;;;5094920;28;20764;-52
2021/10/09 05:29:53;;;;;;;30.80;19.10;;;8.00;1.00;;;;;;5108662;28;20493;-55
2021/10/09 05:32:23;;;;;;;29.47;20.27;;;7.90;1.00;;;;;;5108324;28;20445;-53
2021/10/09 05:34:49;;;;;;;30.40;19.40;;;7.70;1.00;;;;;;5112912;28;20269;-56
2021/10/09 05:37:15;;;;;;;28.97;19.00;;;7.80;1.00;;;;;;5106191;28;20555;-54
2021/10/09 05:39:40;;;;;;;33.17;18.90;;;7.90;1.00;;;;;;5115674;27;20675;-53
2021/10/09 05:42:06;;;;;;;27.33;19.50;;;7.80;1.00;;;;;;5107912;28;20244;-54
2021/10/09 05:44:31;;;;;;;29.60;21.13;;;7.80;1.00;;;;;;5111667;28;20182;-55
2021/10/09 05:46:57;;;;;;;30.10;21.30;;;7.80;1.00;;;;;;5108108;28;20654;-52
2021/10/09 05:49:23;;;;;;;33.67;21.30;;;7.80;1.00;;;;;;5106629;28;20229;-56
2021/10/09 05:52:11;;;;;;;33.27;19.97;;;7.90;1.00;;;;;;5110036;28;20214;-55
2021/10/09 05:54:43;;;;;;;25.87;18.00;;;8.00;1.00;;;;;;5103608;28;20187;-53
2021/10/09 06:00:33;;;;;;;30.10;18.23;;;8.00;1.00;;;;;;5106406;28;20441;-54
2021/10/09 06:25:21;;;;;;;22.13;17.03;;;8.00;1.00;;;;;;5111226;28;20467;-55
2021/10/09 06:37:22;;;;;;;25.37;17.60;;;8.40;1.00;;;;;;5109010;28;20435;-53
2021/10/09 06:38:16;;;;;;;23.97;17.70;;;8.10;1.00;;;;;;5104298;28;20460;-54
2021/10/09 06:43:37;;;;;;;24.70;17.73;;;8.00;1.00;;;;;;5111184;28;20431;-54
2021/10/09 06:46:29;;;;;;;25.70;17.83;;;8.10;1.00;;;;;;5106664;28;20443;-54
2021/10/09 06:59:35;;;;;;;30.27;18.20;;;8.60;1.00;;;;;;5106530;28;20484;-53
2021/10/09 07:02:00;;;;;;;32.83;17.80;;;8.60;1.00;;;;;;5108291;28;20447;-55
2021/10/09 07:04:26;;;;;;;24.43;17.60;;;8.60;1.00;;;;;;5107037;28;20793;-57
2021/10/09 07:06:53;;;;;;;23.77;19.00;;;8.60;1.00;;;;;;5109812;27;20563;-58
2021/10/09 07:09:18;;;;;;;23.73;17.33;;;8.70;1.00;;;;;;5109935;28;20205;-54
2021/10/09 07:11:44;;;;;;;24.30;18.30;;;8.60;1.00;;;;;;5111607;28;20530;-53
2021/10/09 07:14:09;;;;;;;27.77;18.53;;;8.60;1.00;;;;;;5103197;28;20197;-53
2021/10/09 07:16:35;;;;;;;24.43;17.77;;;8.60;1.00;;;;;;5110141;28;20190;-54
2021/10/09 07:19:03;;;;;;;24.57;17.07;;;8.60;1.00;;;;;;5112484;28;20259;-53
2021/10/09 07:21:29;;;;;;;26.30;17.93;;;8.60;1.00;;;;;;5112376;28;20620;-56
2021/10/09 07:23:54;;;;;;;27.90;18.53;;;8.70;1.00;;;;;;5112535;28;20428;-55
2021/10/09 07:26:20;;;;;;;25.30;18.60;;;8.90;1.00;;;;;;5112208;28;20261;-54
2021/10/09 07:28:45;;;;;;;26.20;17.97;;;9.10;1.00;;;;;;5112587;28;20183;-54
2021/10/09 07:31:11;;;;;;;23.60;17.53;;;9.30;1.00;;;;;;5112322;28;20224;-53
2021/10/09 07:33:37;;;;;;;21.20;17.63;;;9.20;1.00;;;;;;5112131;28;20186;-53
2021/10/09 07:36:03;;;;;;;24.87;18.13;;;9.20;1.00;;;;;;5106819;27;20275;-55
2021/10/09 07:38:28;;;;;;;29.27;18.20;;;9.30;1.00;;;;;;5110582;27;20220;-55
2021/10/09 07:40:54;;;;;;;33.27;19.00;;;9.30;1.00;;;;;;5114438;27;20446;-54
2021/10/09 07:43:19;;;;;;;22.50;17.40;;;9.30;1.00;;;;;;5112083;28;20178;-54
2021/10/09 07:45:45;;;;;;;24.37;18.27;;;9.40;1.00;;;;;;5111324;28;20183;-56
2021/10/09 07:48:10;;;;;;;23.43;18.40;;;9.40;1.00;;;;;;5112044;28;20227;-53
2021/10/09 07:50:36;;;;;;;23.37;16.60;;;9.50;1.00;;;;;;5111868;28;20200;-53
2021/10/09 07:53:02;;;;;;;34.33;19.23;;;9.50;1.00;;;;;;5111885;28;20678;-54
2021/10/09 07:55:28;;;;;;;24.33;19.27;;;9.70;1.00;;;;;;5111717;28;20519;-53
2021/10/09 07:57:53;;;;;;;25.57;18.80;;;9.80;1.00;;;;;;5111406;28;20216;-55
2021/10/09 08:00:19;;;;;;;24.47;16.40;;;10.10;1.00;;;;;;5111792;28;20274;-54
2021/10/09 08:02:52;;;;;;;24.47;18.30;;;10.10;1.00;;;;;;5111218;28;20205;-56
2021/10/09 08:05:18;;;;;;;23.53;17.97;;;10.20;1.00;;;;;;5111774;28;20197;-55
2021/10/09 08:07:44;;;;;;;24.50;17.47;;;10.30;1.00;;;;;;5109041;28;20824;-58
2021/10/09 08:10:10;;;;;;;24.60;17.00;;;10.30;1.00;;;;;;5111511;28;20433;-53
2021/10/09 08:12:36;;;;;;;24.67;17.70;;;10.20;1.00;;;;;;5111641;28;20697;-53
2021/10/09 08:15:03;;;;;;;22.33;16.87;;;10.30;1.00;;;;;;5111050;28;20433;-53
2021/10/09 08:17:28;;;;;;;23.03;17.13;;;10.30;1.00;;;;;;5111481;28;20274;-53
2021/10/09 08:19:54;;;;;;;22.03;16.73;;;10.50;1.00;;;;;;5111151;28;20432;-56
2021/10/09 08:22:21;;;;;;;23.70;18.10;;;10.60;1.00;;;;;;5110098;28;20269;-56
2021/10/09 08:25:18;;;;;;;21.87;16.87;;;10.80;1.00;;;;;;5111090;28;20440;-54
2021/10/09 08:36:03;;;;;;;21.53;16.80;;;11.30;1.00;;;;;;5108459;28;20976;-53
2021/10/09 08:41:13;;;;;;;22.90;15.40;;;11.50;1.00;;;;;;5111785;27;20539;-55
2021/10/09 08:43:43;;;;;;;22.87;18.20;;;11.60;1.00;;;;;;5111171;28;20523;-56
2021/10/09 08:46:09;;;;;;;20.37;16.50;;;11.80;1.00;;;;;;5110844;28;20440;-54
2021/10/09 08:48:40;;;;;;;20.60;15.60;;;12.00;1.00;;;;;;5110782;28;20522;-54
2021/10/09 08:51:07;;;;;;;17.60;15.53;;;12.20;1.00;;;;;;5110204;28;20745;-55
2021/10/09 08:53:38;;;;;;;20.90;16.10;;;12.30;1.00;;;;;;5110763;28;20532;-57
2021/10/09 08:56:04;;;;;;;22.90;16.70;;;12.40;1.00;;;;;;5108264;28;20933;-54
2021/10/09 08:58:37;;;;;;;20.73;15.50;;;12.50;1.00;;;;;;5092269;28;20480;-54
2021/10/09 09:01:14;;;;;;;19.93;15.50;;;12.60;1.00;;;;;;5110395;28;20892;-55
2021/10/09 09:07:06;;;;;;;18.93;15.60;;;12.90;1.00;;;;;;5106762;28;20441;-55
2021/10/09 09:39:40;;;;;;;19.10;13.37;;;14.30;1.00;;;;;;5110368;28;20531;-54
2021/10/09 09:42:07;;;;;;;17.00;13.23;;;14.40;1.00;;;;;;5112333;28;20439;-54
2021/10/09 09:44:33;;;;;;;18.27;14.13;;;14.60;1.00;;;;;;5110164;28;20503;-54
2021/10/09 09:47:07;;;;;;;15.37;12.43;;;14.60;1.00;;;;;;5110385;28;20826;-53
2021/10/09 09:49:34;;;;;;;17.07;11.70;;;14.60;1.00;;;;;;5110140;28;20441;-55
2021/10/09 09:52:00;;;;;;;15.60;11.53;;;14.50;1.00;;;;;;5109952;28;20501;-55
2021/10/09 09:54:29;;;;;;;16.47;11.37;;;14.60;1.00;;;;;;5109888;28;20788;-54
2021/10/09 09:57:00;;;;;;;17.43;11.60;;;14.70;1.00;;;;;;5110182;28;20444;-53
2021/10/09 09:59:32;;;;;;;12.83;11.07;;;15.00;1.00;;;;;;5107895;28;20447;-53
2021/10/09 10:02:03;;;;;;;13.97;10.37;;;15.00;1.00;;;;;;5109856;28;20502;-54
2021/10/09 10:04:33;;;;;;;15.67;9.93;;;15.20;1.00;;;;;;5109841;28;20937;-53
2021/10/09 10:07:00;;;;;;;13.73;9.57;;;15.30;1.00;;;;;;5110172;28;20487;-53
2021/10/09 10:09:28;;;;;;;8.97;7.60;;;15.10;1.00;;;;;;5113197;28;20462;-53
2021/10/09 10:12:01;;;;;;;10.97;9.07;;;15.10;1.00;;;;;;5113783;28;20442;-55
2021/10/09 10:14:31;;;;;;;11.93;8.23;;;15.20;1.00;;;;;;5113356;28;20782;-54
2021/10/09 10:16:58;;;;;;;17.43;8.87;;;15.10;1.00;;;;;;5113443;28;20437;-55
2021/10/09 10:20:02;;;;;;;16.17;8.73;;;15.20;1.00;;;;;;5113416;28;20881;-54
2021/10/09 10:22:31;;;;;;;11.63;8.27;;;15.40;1.00;;;;;;5111059;28;20735;-52
2021/10/09 10:24:57;;;;;;;15.53;8.47;;;15.50;1.00;;;;;;5113473;28;20435;-54
2021/10/09 10:27:37;;;;;;;11.70;9.03;;;15.70;1.00;;;;;;5113408;28;20686;-53
2021/10/09 10:30:14;;;;;;;8.23;7.43;;;15.80;1.00;;;;;;5111502;28;20956;-54
2021/10/09 10:33:01;;;;;;;9.07;8.13;;;15.90;1.00;;;;;;5111499;27;20439;-56
2021/10/09 10:35:29;;;;;;;8.60;7.10;;;16.10;1.00;;;;;;5098659;28;20509;-54
2021/10/09 10:38:04;;;;;;;9.07;7.10;;;16.00;1.00;;;;;;5113189;28;20463;-53
2021/10/09 10:40:44;;;;;;;9.10;7.77;;;16.00;1.00;;;;;;5110600;28;20431;-52
2021/10/09 10:45:57;;;;;;;10.43;7.73;;;16.10;1.00;;;;;;5109679;27;20439;-55
2021/10/09 10:49:37;;;;;;;9.40;7.17;;;16.30;1.00;;;;;;5112919;27;21063;-56
2021/10/09 10:55:02;;;;;;;10.87;7.10;;;16.70;1.00;;;;;;5030630;28;20823;-54
2021/10/09 10:57:28;;;;;;;8.77;6.30;;;16.90;1.00;;;;;;5029729;28;20473;-56
2021/10/09 10:59:59;;;;;;;8.10;6.50;;;16.70;1.00;;;;;;5078978;28;20438;-53
2021/10/09 11:02:29;;;;;;;9.40;6.57;;;16.50;1.00;;;;;;5112784;28;20200;-55
2021/10/09 11:05:01;;;;;;;7.03;6.33;;;16.40;1.00;;;;;;5112709;28;20515;-55
2021/10/09 11:07:37;;;;;;;9.53;5.27;;;16.40;1.00;;;;;;5112991;28;20534;-56
2021/10/09 11:10:08;;;;;;;7.80;5.70;;;16.30;1.00;;;;;;5112598;28;20483;-55
2021/10/09 11:12:52;;;;;;;11.40;5.80;;;16.50;1.00;;;;;;5112377;28;20925;-55
2021/10/09 11:15:23;;;;;;;7.27;5.80;;;16.80;1.00;;;;;;5112935;28;20483;-54
2021/10/09 11:17:54;;;;;;;11.23;5.70;;;16.90;1.00;;;;;;5111226;27;20851;-55
2021/10/09 11:20:36;;;;;;;9.20;6.20;;;17.20;1.00;;;;;;5111376;28;20406;-55
2021/10/09 11:23:10;;;;;;;6.57;5.10;;;17.40;1.00;;;;;;5112273;28;20921;-56
2021/10/09 11:25:40;;;;;;;13.00;6.33;;;17.50;1.00;;;;;;5112362;28;20439;-54
2021/10/09 11:28:32;;;;;;;10.47;6.70;;;17.50;1.00;;;;;;5112235;28;20439;-54
2021/10/09 11:30:58;;;;;;;6.87;6.10;;;17.50;1.00;;;;;;5110888;28;20409;-56
2021/10/09 11:33:25;;;;;;;7.90;5.60;;;17.40;1.00;;;;;;5112157;28;20435;-56
2021/10/09 11:35:51;;;;;;;6.90;5.83;;;17.30;1.00;;;;;;5111872;28;20200;-53
2021/10/09 11:38:23;;;;;;;7.53;5.83;;;17.30;1.00;;;;;;5093359;28;20458;-53
2021/10/09 11:43:29;;;;;;;9.23;6.60;;;17.00;1.00;;;;;;5113967;27;20813;-54
2021/10/09 11:46:11;;;;;;;8.13;5.30;;;16.80;1.00;;;;;;5112018;28;20431;-54
2021/10/09 11:56:45;;;;;;;9.70;4.83;;;16.90;1.00;;;;;;5113918;28;20542;-55
2021/10/09 11:59:13;;;;;;;8.17;4.80;;;16.90;1.00;;;;;;5111349;28;20467;-56
2021/10/09 12:01:46;;;;;;;8.33;4.80;;;17.00;1.00;;;;;;5111846;28;20430;-55
2021/10/09 12:04:12;;;;;;;8.17;5.87;;;17.10;1.00;;;;;;5111372;28;20435;-57
2021/10/09 12:06:53;;;;;;;7.20;4.53;;;17.20;1.00;;;;;;5111535;28;20790;-53
2021/10/09 12:09:59;;;;;;;6.60;5.40;;;17.20;1.00;;;;;;5111144;28;20717;-53
2021/10/09 12:12:31;;;;;;;6.70;4.70;;;17.30;1.00;;;;;;5068982;28;20451;-53
2021/10/09 12:14:57;;;;;;;5.03;4.53;;;17.40;1.00;;;;;;5111302;28;20449;-55
2021/10/09 12:17:34;;;;;;;5.50;4.50;;;17.40;1.00;;;;;;5110975;28;20968;-53
2021/10/09 12:20:02;;;;;;;10.77;5.20;;;17.40;1.00;;;;;;5110615;28;20432;-55
2021/10/09 12:22:38;;;;;;;5.10;4.53;;;17.40;1.00;;;;;;5110666;28;20496;-54
2021/10/09 12:25:04;;;;;;;5.93;4.40;;;17.40;1.00;;;;;;5109369;28;20478;-53
2021/10/09 12:27:37;;;;;;;5.23;4.10;;;17.40;1.00;;;;;;5109564;28;20451;-53
2021/10/09 12:30:12;;;;;;;6.50;4.43;;;17.40;1.00;;;;;;5111524;28;20447;-55
2021/10/09 12:32:40;;;;;;;6.03;4.23;;;17.60;1.00;;;;;;5111090;28;20511;-56
2021/10/09 12:35:15;;;;;;;5.17;4.20;;;17.80;1.00;;;;;;5111531;28;20481;-52
2021/10/09 12:37:57;;;;;;;7.47;5.30;;;17.90;1.00;;;;;;5110896;28;20541;-55
2021/10/09 12:40:28;;;;;;;10.27;4.90;;;17.90;1.00;;;;;;5110695;28;20470;-56
2021/10/09 12:42:58;;;;;;;5.93;3.83;;;17.90;1.00;;;;;;5112293;27;20451;-53
2021/10/09 12:45:25;;;;;;;8.73;4.23;;;17.80;1.00;;;;;;5108158;27;20484;-53
2021/10/09 12:47:50;;;;;;;7.30;4.80;;;17.80;1.00;;;;;;5111038;28;20454;-55
2021/10/09 12:50:18;;;;;;;7.80;4.60;;;17.70;1.00;;;;;;5110757;28;20436;-54
2021/10/09 12:52:45;;;;;;;5.43;4.50;;;17.70;1.00;;;;;;5110370;28;20690;-54
2021/10/09 12:55:10;;;;;;;4.43;3.77;;;17.90;1.00;;;;;;5110792;28;20450;-54
2021/10/09 12:57:57;;;;;;;7.10;4.47;;;17.90;1.00;;;;;;5104958;28;20442;-54
2021/10/09 13:00:24;;;;;;;7.53;4.67;;;17.90;1.00;;;;;;5093856;28;20312;-54
2021/10/09 13:02:53;;;;;;;6.70;3.87;;;17.90;1.00;;;;;;5110472;28;20450;-53
2021/10/09 13:05:27;;;;;;;5.30;4.10;;;17.90;1.00;;;;;;5092034;28;20496;-53
2021/10/09 13:07:54;;;;;;;5.43;4.30;;;17.90;1.00;;;;;;5110413;28;20465;-54
2021/10/09 13:10:25;;;;;;;11.93;5.07;;;17.60;1.00;;;;;;5110482;28;20545;-53
2021/10/09 13:12:51;;;;;;;5.40;4.57;;;17.30;1.00;;;;;;5092363;28;20856;-54
2021/10/09 13:15:17;;;;;;;4.77;4.33;;;17.10;1.00;;;;;;5110345;28;20543;-54
2021/10/09 13:17:48;;;;;;;9.37;4.27;;;17.20;1.00;;;;;;5109943;28;20964;-53
2021/10/09 13:20:15;;;;;;;5.30;4.57;;;17.30;1.00;;;;;;5110212;28;20447;-54
2021/10/09 13:22:41;;;;;;;4.23;3.70;;;17.40;1.00;;;;;;5110112;28;20450;-54
2021/10/09 13:25:07;;;;;;;5.97;4.13;;;17.30;1.00;;;;;;5110556;28;20445;-54
2021/10/09 13:27:33;;;;;;;7.97;4.53;;;17.20;1.00;;;;;;5101064;28;20202;-54
2021/10/09 13:29:59;;;;;;;7.83;4.67;;;17.20;1.00;;;;;;5108902;28;20488;-55
2021/10/09 13:32:25;;;;;;;6.53;4.30;;;17.20;1.00;;;;;;5110161;28;20183;-55
2021/10/09 13:34:51;;;;;;;6.57;4.60;;;17.30;1.00;;;;;;5110241;28;20498;-53
2021/10/09 13:37:20;;;;;;;6.97;4.53;;;17.40;1.00;;;;;;5110563;28;20219;-55
2021/10/09 13:39:47;;;;;;;5.50;5.00;;;17.40;1.00;;;;;;5105192;28;20185;-53
2021/10/09 13:42:13;;;;;;;9.80;4.93;;;17.40;1.00;;;;;;5088896;28;20455;-53
2021/10/09 13:44:39;;;;;;;5.97;5.00;;;17.40;1.00;;;;;;5097839;27;20425;-54
2021/10/09 13:47:04;;;;;;;6.60;4.93;;;17.30;1.00;;;;;;5113695;28;20474;-55
2021/10/09 13:49:31;;;;;;;5.80;4.93;;;17.20;1.00;;;;;;5114140;28;20189;-55
2021/10/09 13:51:56;;;;;;;6.17;5.00;;;17.00;1.00;;;;;;5113862;28;20277;-53
2021/10/09 13:54:22;;;;;;;6.40;5.20;;;16.70;1.00;;;;;;5114225;28;20842;-55
2021/10/09 13:56:47;;;;;;;5.83;5.20;;;16.70;1.00;;;;;;5113714;28;20619;-54
2021/10/09 13:59:13;;;;;;;10.33;5.10;;;16.70;1.00;;;;;;5114017;28;20205;-53
2021/10/09 14:01:38;;;;;;;6.33;5.63;;;16.70;1.00;;;;;;5113983;28;20191;-54
2021/10/09 14:04:04;;;;;;;12.13;5.23;;;16.40;1.00;;;;;;5113721;28;20186;-54
2021/10/09 14:06:29;;;;;;;8.83;5.43;;;16.30;1.00;;;;;;5113851;28;20194;-55
2021/10/09 14:08:55;;;;;;;7.83;4.53;;;16.30;1.00;;;;;;5113484;28;20193;-55
2021/10/09 14:11:21;;;;;;;5.93;5.17;;;16.30;1.00;;;;;;5113670;28;20188;-55
2021/10/09 14:13:47;;;;;;;5.70;4.70;;;16.40;1.00;;;;;;5107861;27;20546;-54
2021/10/09 14:16:13;;;;;;;8.40;4.80;;;16.40;1.00;;;;;;5113333;28;20860;-54
2021/10/09 14:18:38;;;;;;;6.33;5.70;;;16.40;1.00;;;;;;5096179;28;20492;-54
2021/10/09 14:21:05;;;;;;;6.40;4.27;;;16.40;1.00;;;;;;5110095;28;20384;-54
2021/10/09 14:23:31;;;;;;;9.47;4.90;;;16.10;1.00;;;;;;5108503;28;20184;-55
2021/10/09 14:26:00;;;;;;;7.23;4.83;;;16.20;1.00;;;;;;5112029;28;20957;-54
2021/10/09 14:28:26;;;;;;;5.20;4.70;;;16.20;1.00;;;;;;5112016;28;20538;-54
2021/10/09 14:30:51;;;;;;;7.90;4.47;;;16.10;1.00;;;;;;5105518;27;20195;-54
2021/10/09 14:33:17;;;;;;;6.83;5.03;;;16.10;1.00;;;;;;5091198;28;20641;-54
2021/10/09 14:35:44;;;;;;;8.00;5.33;;;16.10;1.00;;;;;;5107368;27;20679;-54
2021/10/09 14:38:11;;;;;;;6.27;4.67;;;16.10;1.00;;;;;;5109977;28;20472;-55
2021/10/09 14:40:39;;;;;;;7.50;4.70;;;16.10;1.00;;;;;;5111083;27;20876;-55
2021/10/09 14:43:05;;;;;;;9.10;5.40;;;15.90;1.00;;;;;;5109709;28;20551;-55
2021/10/09 14:45:31;;;;;;;8.20;5.90;;;15.80;1.00;;;;;;5114120;27;21019;-53
2021/10/09 14:48:02;;;;;;;8.60;5.47;;;15.60;1.00;;;;;;5108373;27;20186;-54
2021/10/09 14:53:16;;;;;;;5.30;4.67;;;15.50;1.00;;;;;;5109893;28;20490;-54
2021/10/09 14:56:15;;;;;;;7.03;5.90;;;15.50;1.00;;;;;;5112611;28;20653;-56
2021/10/09 15:20:12;;;;;;;7.80;5.20;;;18.60;1.00;;;;;;5107792;28;20850;-53
2021/10/09 15:22:38;;;;;;;5.37;4.87;;;18.60;1.00;;;;;;5110383;28;20530;-55